sensor_id;sensor_type;location;lat;lon;timestamp;temperature;humidity
47090;DHT22;32840;52.516;13.294;2023-03-23T00:01:48;13.90;99.90
47090;DHT22;32840;52.516;13.294;2023-03-23T00:04:36;13.90;99.90
47090;DHT22;32840;52.516;13.294;2023-03-23T00:07:22;13.80;99.90
47090;DHT22;32840;52.516;13.294;2023-03-23T00:10:11;13.70;99.90
47090;DHT22;32840;52.516;13.294;2023-03-23T00:12:56;13.70;99.90
47090;DHT22;32840;52.516;13.294;2023-03-23T00:15:41;13.70;99.90
47090;DHT22;32840;52.516;13.294;2023-03-23T00:18:26;13.70;99.90
47090;DHT22;32840;52.516;13.294;2023-03-23T00:21:11;13.70;99.90
47090;DHT22;32840;52.516;13.294;2023-03-23T00:23:55;13.70;99.90
47090;DHT22;32840;52.516;13.294;2023-03-23T00:26:41;13.70;99.90
47090;DHT22;32840;52.516;13.294;2023-03-23T00:29:27;13.70;99.90
47090;DHT22;32840;52.516;13.294;2023-03-23T00:32:13;13.60;99.90
47090;DHT22;32840;52.516;13.294;2023-03-23T00:34:59;13.60;99.90
47090;DHT22;32840;52.516;13.294;2023-03-23T00:37:43;13.50;99.90
47090;DHT22;32840;52.516;13.294;2023-03-23T00:40:28;13.50;99.90
47090;DHT22;32840;52.516;13.294;2023-03-23T00:43:17;13.40;99.90
47090;DHT22;32840;52.516;13.294;2023-03-23T00:46:03;13.40;99.90
47090;DHT22;32840;52.516;13.294;2023-03-23T00:48:55;13.40;99.90
47090;DHT22;32840;52.516;13.294;2023-03-23T00:51:41;13.40;99.90
47090;DHT22;32840;52.516;13.294;2023-03-23T00:54:26;13.40;99.90
47090;DHT22;32840;52.516;13.294;2023-03-23T00:57:11;13.30;99.90
47090;DHT22;32840;52.516;13.294;2023-03-23T00:59:56;13.30;99.90
47090;DHT22;32840;52.516;13.294;2023-03-23T01:02:41;13.30;99.90
47090;DHT22;32840;52.516;13.294;2023-03-23T01:05:29;13.20;99.90
47090;DHT22;32840;52.516;13.294;2023-03-23T01:08:16;13.20;99.90
47090;DHT22;32840;52.516;13.294;2023-03-23T01:11:03;13.20;99.90
47090;DHT22;32840;52.516;13.294;2023-03-23T01:13:51;13.10;99.90
47090;DHT22;32840;52.516;13.294;2023-03-23T01:16:37;13.10;99.90
47090;DHT22;32840;52.516;13.294;2023-03-23T01:19:21;13.10;99.90
47090;DHT22;32840;52.516;13.294;2023-03-23T01:22:06;13.10;99.90
47090;DHT22;32840;52.516;13.294;2023-03-23T01:24:51;13.10;99.90
47090;DHT22;32840;52.516;13.294;2023-03-23T01:27:36;13.10;99.90
47090;DHT22;32840;52.516;13.294;2023-03-23T01:30:21;13.00;99.90
47090;DHT22;32840;52.516;13.294;2023-03-23T01:33:07;13.10;99.90
47090;DHT22;32840;52.516;13.294;2023-03-23T01:35:52;12.90;99.90
47090;DHT22;32840;52.516;13.294;2023-03-23T01:38:37;12.90;99.90
47090;DHT22;32840;52.516;13.294;2023-03-23T01:41:22;13.00;99.90
47090;DHT22;32840;52.516;13.294;2023-03-23T01:47:20;13.00;99.90
47090;DHT22;32840;52.516;13.294;2023-03-23T01:50:08;13.00;99.90
47090;DHT22;32840;52.516;13.294;2023-03-23T01:52:53;13.10;99.90
47090;DHT22;32840;52.516;13.294;2023-03-23T01:55:43;13.10;99.90
47090;DHT22;32840;52.516;13.294;2023-03-23T01:58:33;13.10;99.90
47090;DHT22;32840;52.516;13.294;2023-03-23T02:01:20;13.00;99.90
47090;DHT22;32840;52.516;13.294;2023-03-23T02:04:06;13.10;99.90
47090;DHT22;32840;52.516;13.294;2023-03-23T02:06:53;13.00;99.90
47090;DHT22;32840;52.516;13.294;2023-03-23T02:09:39;13.00;99.90
47090;DHT22;32840;52.516;13.294;2023-03-23T02:12:23;12.90;99.90
47090;DHT22;32840;52.516;13.294;2023-03-23T02:15:09;13.00;99.90
47090;DHT22;32840;52.516;13.294;2023-03-23T02:18:12;13.00;99.90
47090;DHT22;32840;52.516;13.294;2023-03-23T02:33:58;13.20;99.90
47090;DHT22;32840;52.516;13.294;2023-03-23T02:37:02;13.30;99.90
47090;DHT22;32840;52.516;13.294;2023-03-23T02:39:51;13.30;99.90
47090;DHT22;32840;52.516;13.294;2023-03-23T02:42:39;13.40;99.90
47090;DHT22;32840;52.516;13.294;2023-03-23T02:45:29;13.30;99.90
47090;DHT22;32840;52.516;13.294;2023-03-23T02:48:17;13.30;99.90
47090;DHT22;32840;52.516;13.294;2023-03-23T02:51:05;13.20;99.90
47090;DHT22;32840;52.516;13.294;2023-03-23T02:53:51;13.20;99.90
47090;DHT22;32840;52.516;13.294;2023-03-23T02:56:40;13.10;99.90
47090;DHT22;32840;52.516;13.294;2023-03-23T02:59:25;13.10;99.90
47090;DHT22;32840;52.516;13.294;2023-03-23T03:03:04;13.10;99.90
47090;DHT22;32840;52.516;13.294;2023-03-23T03:05:49;13.10;99.90
47090;DHT22;32840;52.516;13.294;2023-03-23T03:08:55;13.10;99.90
47090;DHT22;32840;52.516;13.294;2023-03-23T03:11:47;13.10;99.90
47090;DHT22;32840;52.516;13.294;2023-03-23T03:14:51;13.10;99.90
47090;DHT22;32840;52.516;13.294;2023-03-23T03:17:44;13.10;99.90
47090;DHT22;32840;52.516;13.294;2023-03-23T03:20:31;13.10;99.90
47090;DHT22;32840;52.516;13.294;2023-03-23T03:23:17;13.20;99.90
47090;DHT22;32840;52.516;13.294;2023-03-23T03:26:04;13.20;99.90
47090;DHT22;32840;52.516;13.294;2023-03-23T03:28:50;13.30;99.90
47090;DHT22;32840;52.516;13.294;2023-03-23T03:31:38;13.30;99.90
47090;DHT22;32840;52.516;13.294;2023-03-23T03:34:25;13.30;99.90
47090;DHT22;32840;52.516;13.294;2023-03-23T03:37:10;13.30;99.90
47090;DHT22;32840;52.516;13.294;2023-03-23T03:39:56;13.20;99.90
47090;DHT22;32840;52.516;13.294;2023-03-23T03:42:42;13.20;99.90
47090;DHT22;32840;52.516;13.294;2023-03-23T03:45:27;13.20;99.90
47090;DHT22;32840;52.516;13.294;2023-03-23T03:48:12;13.00;99.90
47090;DHT22;32840;52.516;13.294;2023-03-23T03:50:57;13.10;99.90
47090;DHT22;32840;52.516;13.294;2023-03-23T03:53:44;13.10;99.90
47090;DHT22;32840;52.516;13.294;2023-03-23T03:56:31;13.10;99.90
47090;DHT22;32840;52.516;13.294;2023-03-23T03:59:20;13.00;99.90
47090;DHT22;32840;52.516;13.294;2023-03-23T04:02:07;13.00;99.90
47090;DHT22;32840;52.516;13.294;2023-03-23T04:04:52;13.00;99.90
47090;DHT22;32840;52.516;13.294;2023-03-23T04:07:37;13.00;99.90
47090;DHT22;32840;52.516;13.294;2023-03-23T04:10:22;12.90;99.90
47090;DHT22;32840;52.516;13.294;2023-03-23T04:13:07;12.90;99.90
47090;DHT22;32840;52.516;13.294;2023-03-23T04:15:55;12.90;99.90
47090;DHT22;32840;52.516;13.294;2023-03-23T04:18:40;13.00;99.90
47090;DHT22;32840;52.516;13.294;2023-03-23T04:21:27;12.90;99.90
47090;DHT22;32840;52.516;13.294;2023-03-23T04:24:15;13.10;99.90
47090;DHT22;32840;52.516;13.294;2023-03-23T04:27:00;13.00;99.90
47090;DHT22;32840;52.516;13.294;2023-03-23T04:29:45;13.00;99.90
47090;DHT22;32840;52.516;13.294;2023-03-23T04:32:33;13.00;99.90
47090;DHT22;32840;52.516;13.294;2023-03-23T04:35:19;13.10;99.90
47090;DHT22;32840;52.516;13.294;2023-03-23T04:38:05;13.10;99.90
47090;DHT22;32840;52.516;13.294;2023-03-23T04:40:51;13.20;99.90
47090;DHT22;32840;52.516;13.294;2023-03-23T04:43:37;13.30;99.90
47090;DHT22;32840;52.516;13.294;2023-03-23T04:46:26;13.20;99.90
47090;DHT22;32840;52.516;13.294;2023-03-23T04:49:14;13.10;99.90
47090;DHT22;32840;52.516;13.294;2023-03-23T04:51:59;13.10;99.90
47090;DHT22;32840;52.516;13.294;2023-03-23T04:54:44;13.00;99.90
47090;DHT22;32840;52.516;13.294;2023-03-23T04:57:29;13.20;99.90
47090;DHT22;32840;52.516;13.294;2023-03-23T05:00:15;13.10;99.90
47090;DHT22;32840;52.516;13.294;2023-03-23T05:03:01;13.00;99.90
47090;DHT22;32840;52.516;13.294;2023-03-23T05:05:46;13.00;99.90
47090;DHT22;32840;52.516;13.294;2023-03-23T05:08:36;13.00;99.90
47090;DHT22;32840;52.516;13.294;2023-03-23T05:11:24;12.90;99.90
47090;DHT22;32840;52.516;13.294;2023-03-23T05:14:11;12.90;99.90
47090;DHT22;32840;52.516;13.294;2023-03-23T05:16:55;12.80;99.90
47090;DHT22;32840;52.516;13.294;2023-03-23T05:19:40;12.80;99.90
47090;DHT22;32840;52.516;13.294;2023-03-23T05:22:27;12.90;99.90
47090;DHT22;32840;52.516;13.294;2023-03-23T05:25:12;12.90;99.90
47090;DHT22;32840;52.516;13.294;2023-03-23T05:27:57;12.90;99.90
47090;DHT22;32840;52.516;13.294;2023-03-23T05:30:43;12.90;99.90
47090;DHT22;32840;52.516;13.294;2023-03-23T05:33:28;12.80;99.90
47090;DHT22;32840;52.516;13.294;2023-03-23T05:36:13;12.80;99.90
47090;DHT22;32840;52.516;13.294;2023-03-23T05:38:58;12.80;99.90
47090;DHT22;32840;52.516;13.294;2023-03-23T05:41:44;12.80;99.90
47090;DHT22;32840;52.516;13.294;2023-03-23T05:44:31;12.80;99.90
47090;DHT22;32840;52.516;13.294;2023-03-23T05:47:18;12.80;99.90
47090;DHT22;32840;52.516;13.294;2023-03-23T05:50:05;12.90;99.90
47090;DHT22;32840;52.516;13.294;2023-03-23T05:52:50;12.90;99.90
47090;DHT22;32840;52.516;13.294;2023-03-23T05:55:36;12.90;99.90
47090;DHT22;32840;52.516;13.294;2023-03-23T05:58:21;12.90;99.90
47090;DHT22;32840;52.516;13.294;2023-03-23T06:01:07;12.90;99.90
47090;DHT22;32840;52.516;13.294;2023-03-23T06:03:52;12.90;99.90
47090;DHT22;32840;52.516;13.294;2023-03-23T06:06:47;12.90;99.90
47090;DHT22;32840;52.516;13.294;2023-03-23T06:09:34;12.90;99.90
47090;DHT22;32840;52.516;13.294;2023-03-23T06:12:21;12.90;99.90
47090;DHT22;32840;52.516;13.294;2023-03-23T06:15:07;12.90;99.90
47090;DHT22;32840;52.516;13.294;2023-03-23T06:17:52;12.80;99.90
47090;DHT22;32840;52.516;13.294;2023-03-23T06:20:43;12.80;99.90
47090;DHT22;32840;52.516;13.294;2023-03-23T06:23:29;12.80;99.90
47090;DHT22;32840;52.516;13.294;2023-03-23T06:26:14;12.90;99.90
47090;DHT22;32840;52.516;13.294;2023-03-23T06:29:05;12.80;99.90
47090;DHT22;32840;52.516;13.294;2023-03-23T06:32:00;12.90;99.90
47090;DHT22;32840;52.516;13.294;2023-03-23T06:34:47;12.90;99.90
47090;DHT22;32840;52.516;13.294;2023-03-23T06:37:32;12.90;99.90
47090;DHT22;32840;52.516;13.294;2023-03-23T06:40:17;13.00;99.90
47090;DHT22;32840;52.516;13.294;2023-03-23T06:43:06;13.00;99.90
47090;DHT22;32840;52.516;13.294;2023-03-23T06:45:53;13.00;99.90
47090;DHT22;32840;52.516;13.294;2023-03-23T06:48:40;13.00;99.90
47090;DHT22;32840;52.516;13.294;2023-03-23T06:51:25;13.00;99.90
47090;DHT22;32840;52.516;13.294;2023-03-23T06:54:09;13.10;99.90
47090;DHT22;32840;52.516;13.294;2023-03-23T06:56:54;13.00;99.90
47090;DHT22;32840;52.516;13.294;2023-03-23T06:59:40;13.00;99.90
47090;DHT22;32840;52.516;13.294;2023-03-23T07:02:25;13.00;99.90
47090;DHT22;32840;52.516;13.294;2023-03-23T07:05:11;13.00;99.90
47090;DHT22;32840;52.516;13.294;2023-03-23T07:07:56;13.00;99.90
47090;DHT22;32840;52.516;13.294;2023-03-23T07:10:41;12.90;99.90
47090;DHT22;32840;52.516;13.294;2023-03-23T07:13:26;13.00;99.90
47090;DHT22;32840;52.516;13.294;2023-03-23T07:16:12;13.00;99.90
47090;DHT22;32840;52.516;13.294;2023-03-23T07:18:57;13.10;99.90
47090;DHT22;32840;52.516;13.294;2023-03-23T07:21:42;12.90;99.90
47090;DHT22;32840;52.516;13.294;2023-03-23T07:24:27;12.90;99.90
47090;DHT22;32840;52.516;13.294;2023-03-23T07:27:14;12.90;99.90
47090;DHT22;32840;52.516;13.294;2023-03-23T07:29:59;13.00;99.90
47090;DHT22;32840;52.516;13.294;2023-03-23T07:32:44;13.00;99.90
47090;DHT22;32840;52.516;13.294;2023-03-23T07:35:29;13.10;99.90
47090;DHT22;32840;52.516;13.294;2023-03-23T07:38:14;13.10;99.90
47090;DHT22;32840;52.516;13.294;2023-03-23T07:40:59;13.10;99.90
47090;DHT22;32840;52.516;13.294;2023-03-23T07:43:44;13.10;99.90
47090;DHT22;32840;52.516;13.294;2023-03-23T07:46:32;13.00;99.90
47090;DHT22;32840;52.516;13.294;2023-03-23T07:49:17;13.00;99.90
47090;DHT22;32840;52.516;13.294;2023-03-23T07:52:02;13.10;99.90
47090;DHT22;32840;52.516;13.294;2023-03-23T07:54:47;13.10;99.90
47090;DHT22;32840;52.516;13.294;2023-03-23T07:57:32;13.20;99.90
47090;DHT22;32840;52.516;13.294;2023-03-23T08:00:19;13.20;99.90
47090;DHT22;32840;52.516;13.294;2023-03-23T08:03:05;13.30;99.90
47090;DHT22;32840;52.516;13.294;2023-03-23T08:05:50;13.30;99.90
47090;DHT22;32840;52.516;13.294;2023-03-23T08:08:36;13.30;99.90
47090;DHT22;32840;52.516;13.294;2023-03-23T08:11:21;13.30;99.90
47090;DHT22;32840;52.516;13.294;2023-03-23T08:14:06;13.40;99.90
47090;DHT22;32840;52.516;13.294;2023-03-23T08:16:51;13.50;99.90
47090;DHT22;32840;52.516;13.294;2023-03-23T08:19:37;13.50;99.90
47090;DHT22;32840;52.516;13.294;2023-03-23T08:22:21;13.50;99.90
47090;DHT22;32840;52.516;13.294;2023-03-23T08:25:08;13.50;99.90
47090;DHT22;32840;52.516;13.294;2023-03-23T08:27:54;13.40;99.90
47090;DHT22;32840;52.516;13.294;2023-03-23T08:30:42;13.40;99.90
47090;DHT22;32840;52.516;13.294;2023-03-23T08:33:27;13.50;99.90
47090;DHT22;32840;52.516;13.294;2023-03-23T08:36:12;13.50;99.90
47090;DHT22;32840;52.516;13.294;2023-03-23T08:38:57;13.40;99.90
47090;DHT22;32840;52.516;13.294;2023-03-23T08:41:44;13.50;99.90
47090;DHT22;32840;52.516;13.294;2023-03-23T08:44:29;13.40;99.90
47090;DHT22;32840;52.516;13.294;2023-03-23T08:47:14;13.50;99.90
47090;DHT22;32840;52.516;13.294;2023-03-23T08:49:59;13.60;99.90
47090;DHT22;32840;52.516;13.294;2023-03-23T08:52:44;13.70;99.90
47090;DHT22;32840;52.516;13.294;2023-03-23T08:55:29;13.80;99.90
47090;DHT22;32840;52.516;13.294;2023-03-23T08:58:15;13.80;99.90
47090;DHT22;32840;52.516;13.294;2023-03-23T09:01:00;13.80;99.90
47090;DHT22;32840;52.516;13.294;2023-03-23T09:03:45;13.80;99.90
47090;DHT22;32840;52.516;13.294;2023-03-23T09:06:30;14.00;99.90
47090;DHT22;32840;52.516;13.294;2023-03-23T09:09:16;14.10;99.90
47090;DHT22;32840;52.516;13.294;2023-03-23T09:12:01;14.20;99.90
47090;DHT22;32840;52.516;13.294;2023-03-23T09:14:47;14.10;99.90
47090;DHT22;32840;52.516;13.294;2023-03-23T09:17:32;14.20;99.90
47090;DHT22;32840;52.516;13.294;2023-03-23T09:20:23;14.10;99.90
47090;DHT22;32840;52.516;13.294;2023-03-23T09:23:08;14.10;99.90
47090;DHT22;32840;52.516;13.294;2023-03-23T09:25:52;14.20;99.90
47090;DHT22;32840;52.516;13.294;2023-03-23T09:28:37;14.30;99.90
47090;DHT22;32840;52.516;13.294;2023-03-23T09:31:23;14.40;99.90
47090;DHT22;32840;52.516;13.294;2023-03-23T09:34:11;14.50;99.90
47090;DHT22;32840;52.516;13.294;2023-03-23T09:36:56;14.60;99.90
47090;DHT22;32840;52.516;13.294;2023-03-23T09:39:41;14.80;99.90
47090;DHT22;32840;52.516;13.294;2023-03-23T09:42:31;14.80;99.90
47090;DHT22;32840;52.516;13.294;2023-03-23T09:48:36;15.00;99.90
47090;DHT22;32840;52.516;13.294;2023-03-23T09:54:32;15.00;99.90
47090;DHT22;32840;52.516;13.294;2023-03-23T09:57:30;15.10;99.90
47090;DHT22;32840;52.516;13.294;2023-03-23T10:00:34;15.20;99.90
47090;DHT22;32840;52.516;13.294;2023-03-23T10:03:27;15.40;99.90
47090;DHT22;32840;52.516;13.294;2023-03-23T10:06:17;15.40;99.90
47090;DHT22;32840;52.516;13.294;2023-03-23T10:09:04;15.50;99.90
47090;DHT22;32840;52.516;13.294;2023-03-23T10:15:16;15.50;99.90
47090;DHT22;32840;52.516;13.294;2023-03-23T10:18:15;15.50;99.90
47090;DHT22;32840;52.516;13.294;2023-03-23T10:21:02;15.50;99.90
47090;DHT22;32840;52.516;13.294;2023-03-23T10:29:52;15.80;99.90
47090;DHT22;32840;52.516;13.294;2023-03-23T10:32:41;15.80;99.90
47090;DHT22;32840;52.516;13.294;2023-03-23T10:35:45;15.80;99.90
47090;DHT22;32840;52.516;13.294;2023-03-23T10:38:39;15.70;99.90
47090;DHT22;32840;52.516;13.294;2023-03-23T10:41:27;15.80;99.90
47090;DHT22;32840;52.516;13.294;2023-03-23T10:44:23;15.90;99.90
47090;DHT22;32840;52.516;13.294;2023-03-23T10:47:09;16.00;99.90
47090;DHT22;32840;52.516;13.294;2023-03-23T10:49:57;16.00;99.90
47090;DHT22;32840;52.516;13.294;2023-03-23T10:52:45;15.90;99.90
47090;DHT22;32840;52.516;13.294;2023-03-23T10:55:40;15.90;99.90
47090;DHT22;32840;52.516;13.294;2023-03-23T10:58:34;16.00;99.90
47090;DHT22;32840;52.516;13.294;2023-03-23T11:01:27;15.90;99.90
47090;DHT22;32840;52.516;13.294;2023-03-23T11:04:16;15.90;99.90
47090;DHT22;32840;52.516;13.294;2023-03-23T11:07:04;15.90;99.90
47090;DHT22;32840;52.516;13.294;2023-03-23T11:09:55;15.90;99.90
47090;DHT22;32840;52.516;13.294;2023-03-23T11:12:46;15.90;99.90
47090;DHT22;32840;52.516;13.294;2023-03-23T11:15:35;15.90;99.90
47090;DHT22;32840;52.516;13.294;2023-03-23T11:18:25;15.90;99.90
47090;DHT22;32840;52.516;13.294;2023-03-23T11:21:13;15.90;99.90
47090;DHT22;32840;52.516;13.294;2023-03-23T11:24:00;15.90;99.90
47090;DHT22;32840;52.516;13.294;2023-03-23T11:26:45;16.00;99.90
47090;DHT22;32840;52.516;13.294;2023-03-23T11:29:33;16.10;99.90
47090;DHT22;32840;52.516;13.294;2023-03-23T11:32:18;16.20;99.90
47090;DHT22;32840;52.516;13.294;2023-03-23T11:35:06;16.30;99.90
47090;DHT22;32840;52.516;13.294;2023-03-23T11:37:59;16.30;99.90
47090;DHT22;32840;52.516;13.294;2023-03-23T11:40:49;16.30;99.90
47090;DHT22;32840;52.516;13.294;2023-03-23T11:43:38;16.30;99.90
47090;DHT22;32840;52.516;13.294;2023-03-23T11:46:35;16.40;99.90
47090;DHT22;32840;52.516;13.294;2023-03-23T11:49:45;16.40;99.90
47090;DHT22;32840;52.516;13.294;2023-03-23T11:52:52;16.50;99.90
47090;DHT22;32840;52.516;13.294;2023-03-23T11:58:32;16.60;99.90
47090;DHT22;32840;52.516;13.294;2023-03-23T12:04:25;16.70;99.90
47090;DHT22;32840;52.516;13.294;2023-03-23T12:10:23;16.70;99.90
47090;DHT22;32840;52.516;13.294;2023-03-23T12:13:38;16.70;99.90
47090;DHT22;32840;52.516;13.294;2023-03-23T12:16:50;16.60;99.90
47090;DHT22;32840;52.516;13.294;2023-03-23T12:23:03;16.60;99.90
47090;DHT22;32840;52.516;13.294;2023-03-23T12:26:05;16.70;99.90
47090;DHT22;32840;52.516;13.294;2023-03-23T12:29:20;16.70;99.90
47090;DHT22;32840;52.516;13.294;2023-03-23T12:35:42;16.70;99.90
47090;DHT22;32840;52.516;13.294;2023-03-23T12:41:49;16.70;99.90
47090;DHT22;32840;52.516;13.294;2023-03-23T12:44:46;16.70;99.90
47090;DHT22;32840;52.516;13.294;2023-03-23T12:47:42;16.80;99.90
47090;DHT22;32840;52.516;13.294;2023-03-23T12:53:30;16.70;99.90
47090;DHT22;32840;52.516;13.294;2023-03-23T12:56:36;16.80;99.90
47090;DHT22;32840;52.516;13.294;2023-03-23T12:59:26;16.90;99.90
47090;DHT22;32840;52.516;13.294;2023-03-23T13:05:49;17.10;99.90
47090;DHT22;32840;52.516;13.294;2023-03-23T13:11:38;17.30;99.90
47090;DHT22;32840;52.516;13.294;2023-03-23T13:20:35;17.30;99.90
47090;DHT22;32840;52.516;13.294;2023-03-23T13:23:31;17.30;99.90
47090;DHT22;32840;52.516;13.294;2023-03-23T13:26:22;17.20;99.90
47090;DHT22;32840;52.516;13.294;2023-03-23T13:29:13;17.30;99.90
47090;DHT22;32840;52.516;13.294;2023-03-23T13:32:15;17.30;99.90
47090;DHT22;32840;52.516;13.294;2023-03-23T13:35:12;17.40;99.90
47090;DHT22;32840;52.516;13.294;2023-03-23T13:37:57;17.30;99.90
47090;DHT22;32840;52.516;13.294;2023-03-23T13:40:45;17.30;99.90
47090;DHT22;32840;52.516;13.294;2023-03-23T13:43:33;17.30;99.90
47090;DHT22;32840;52.516;13.294;2023-03-23T13:46:26;17.20;99.90
47090;DHT22;32840;52.516;13.294;2023-03-23T13:49:21;17.20;99.90
47090;DHT22;32840;52.516;13.294;2023-03-23T13:55:40;17.30;99.90
47090;DHT22;32840;52.516;13.294;2023-03-23T13:58:26;17.30;99.90
47090;DHT22;32840;52.516;13.294;2023-03-23T14:01:16;17.30;99.90
47090;DHT22;32840;52.516;13.294;2023-03-23T14:04:06;17.40;99.90
47090;DHT22;32840;52.516;13.294;2023-03-23T14:06:51;17.60;99.90
47090;DHT22;32840;52.516;13.294;2023-03-23T14:09:42;17.50;99.90
47090;DHT22;32840;52.516;13.294;2023-03-23T14:12:28;17.50;99.90
47090;DHT22;32840;52.516;13.294;2023-03-23T14:15:16;17.50;99.90
47090;DHT22;32840;52.516;13.294;2023-03-23T14:18:03;17.50;99.90
47090;DHT22;32840;52.516;13.294;2023-03-23T14:20:49;17.40;99.30
47090;DHT22;32840;52.516;13.294;2023-03-23T14:23:36;17.40;98.50
47090;DHT22;32840;52.516;13.294;2023-03-23T14:26:26;17.40;99.00
47090;DHT22;32840;52.516;13.294;2023-03-23T14:29:13;17.50;98.90
47090;DHT22;32840;52.516;13.294;2023-03-23T14:31:58;17.70;98.20
47090;DHT22;32840;52.516;13.294;2023-03-23T14:34:48;17.60;98.50
47090;DHT22;32840;52.516;13.294;2023-03-23T14:37:33;17.50;97.60
47090;DHT22;32840;52.516;13.294;2023-03-23T14:40:20;17.50;97.80
47090;DHT22;32840;52.516;13.294;2023-03-23T14:43:08;17.40;97.10
47090;DHT22;32840;52.516;13.294;2023-03-23T14:45:59;17.30;96.80
47090;DHT22;32840;52.516;13.294;2023-03-23T14:48:44;17.30;97.80
47090;DHT22;32840;52.516;13.294;2023-03-23T14:51:30;17.20;96.60
47090;DHT22;32840;52.516;13.294;2023-03-23T14:54:15;17.20;97.20
47090;DHT22;32840;52.516;13.294;2023-03-23T14:57:40;17.20;97.70
47090;DHT22;32840;52.516;13.294;2023-03-23T15:04:02;17.40;96.70
47090;DHT22;32840;52.516;13.294;2023-03-23T15:07:03;17.30;97.00
47090;DHT22;32840;52.516;13.294;2023-03-23T15:09:49;17.30;97.30
47090;DHT22;32840;52.516;13.294;2023-03-23T15:12:34;17.20;97.30
47090;DHT22;32840;52.516;13.294;2023-03-23T15:15:29;17.10;97.80
47090;DHT22;32840;52.516;13.294;2023-03-23T15:18:30;17.10;97.30
47090;DHT22;32840;52.516;13.294;2023-03-23T15:21:47;17.00;98.60
47090;DHT22;32840;52.516;13.294;2023-03-23T15:24:41;16.90;98.90
47090;DHT22;32840;52.516;13.294;2023-03-23T15:27:40;16.90;98.10
47090;DHT22;32840;52.516;13.294;2023-03-23T15:30:32;16.80;97.60
47090;DHT22;32840;52.516;13.294;2023-03-23T15:33:18;16.80;97.70
47090;DHT22;32840;52.516;13.294;2023-03-23T15:36:14;16.70;98.10
47090;DHT22;32840;52.516;13.294;2023-03-23T15:39:01;16.70;98.40
47090;DHT22;32840;52.516;13.294;2023-03-23T15:41:50;16.70;98.90
47090;DHT22;32840;52.516;13.294;2023-03-23T15:44:35;16.80;99.30
47090;DHT22;32840;52.516;13.294;2023-03-23T15:47:20;16.80;99.30
47090;DHT22;32840;52.516;13.294;2023-03-23T15:53:28;16.70;99.00
47090;DHT22;32840;52.516;13.294;2023-03-23T15:56:14;16.70;98.30
47090;DHT22;32840;52.516;13.294;2023-03-23T15:59:00;16.80;96.60
47090;DHT22;32840;52.516;13.294;2023-03-23T16:01:49;16.80;97.20
47090;DHT22;32840;52.516;13.294;2023-03-23T16:04:36;16.80;97.50
47090;DHT22;32840;52.516;13.294;2023-03-23T16:07:22;16.80;96.80
47090;DHT22;32840;52.516;13.294;2023-03-23T16:10:15;16.80;98.00
47090;DHT22;32840;52.516;13.294;2023-03-23T16:13:00;16.80;96.50
47090;DHT22;32840;52.516;13.294;2023-03-23T16:15:46;16.70;95.90
47090;DHT22;32840;52.516;13.294;2023-03-23T16:18:31;16.80;97.70
47090;DHT22;32840;52.516;13.294;2023-03-23T16:21:17;16.70;95.40
47090;DHT22;32840;52.516;13.294;2023-03-23T16:24:03;16.70;94.80
47090;DHT22;32840;52.516;13.294;2023-03-23T16:26:47;16.70;94.60
47090;DHT22;32840;52.516;13.294;2023-03-23T16:29:32;16.70;94.50
47090;DHT22;32840;52.516;13.294;2023-03-23T16:32:17;16.70;95.00
47090;DHT22;32840;52.516;13.294;2023-03-23T16:35:02;16.60;95.50
47090;DHT22;32840;52.516;13.294;2023-03-23T16:37:55;16.50;96.40
47090;DHT22;32840;52.516;13.294;2023-03-23T16:40:40;16.40;97.40
47090;DHT22;32840;52.516;13.294;2023-03-23T16:43:25;16.30;99.10
47090;DHT22;32840;52.516;13.294;2023-03-23T16:46:15;16.10;99.90
47090;DHT22;32840;52.516;13.294;2023-03-23T16:49:07;15.90;99.90
47090;DHT22;32840;52.516;13.294;2023-03-23T16:51:55;15.80;99.90
47090;DHT22;32840;52.516;13.294;2023-03-23T16:54:40;15.70;99.90
47090;DHT22;32840;52.516;13.294;2023-03-23T16:57:26;15.60;99.90
47090;DHT22;32840;52.516;13.294;2023-03-23T17:00:16;15.40;99.90
47090;DHT22;32840;52.516;13.294;2023-03-23T17:03:03;15.30;99.90
47090;DHT22;32840;52.516;13.294;2023-03-23T17:05:49;15.20;99.90
47090;DHT22;32840;52.516;13.294;2023-03-23T17:08:35;15.20;99.90
47090;DHT22;32840;52.516;13.294;2023-03-23T17:11:21;15.10;99.90
47090;DHT22;32840;52.516;13.294;2023-03-23T17:14:15;15.00;99.90
47090;DHT22;32840;52.516;13.294;2023-03-23T17:17:01;15.00;99.90
47090;DHT22;32840;52.516;13.294;2023-03-23T17:19:46;14.90;99.90
47090;DHT22;32840;52.516;13.294;2023-03-23T17:22:32;14.90;99.90
47090;DHT22;32840;52.516;13.294;2023-03-23T17:25:17;14.80;99.90
47090;DHT22;32840;52.516;13.294;2023-03-23T17:28:02;14.70;99.90
47090;DHT22;32840;52.516;13.294;2023-03-23T17:30:47;14.70;99.90
47090;DHT22;32840;52.516;13.294;2023-03-23T17:33:32;14.80;99.90
47090;DHT22;32840;52.516;13.294;2023-03-23T17:36:17;14.80;99.90
47090;DHT22;32840;52.516;13.294;2023-03-23T17:39:02;14.80;99.90
47090;DHT22;32840;52.516;13.294;2023-03-23T17:41:48;14.70;99.90
47090;DHT22;32840;52.516;13.294;2023-03-23T17:44:33;14.60;99.90
47090;DHT22;32840;52.516;13.294;2023-03-23T17:47:19;14.50;99.90
47090;DHT22;32840;52.516;13.294;2023-03-23T17:50:04;14.50;99.90
47090;DHT22;32840;52.516;13.294;2023-03-23T17:52:49;14.40;99.90
47090;DHT22;32840;52.516;13.294;2023-03-23T17:55:34;14.40;99.90
47090;DHT22;32840;52.516;13.294;2023-03-23T17:58:19;14.40;99.90
47090;DHT22;32840;52.516;13.294;2023-03-23T18:01:04;14.40;99.90
47090;DHT22;32840;52.516;13.294;2023-03-23T18:03:49;14.30;99.90
47090;DHT22;32840;52.516;13.294;2023-03-23T18:06:34;14.20;99.90
47090;DHT22;32840;52.516;13.294;2023-03-23T18:09:19;14.20;99.90
47090;DHT22;32840;52.516;13.294;2023-03-23T18:12:04;14.20;99.90
47090;DHT22;32840;52.516;13.294;2023-03-23T18:14:50;14.10;99.90
47090;DHT22;32840;52.516;13.294;2023-03-23T18:17:38;14.10;99.90
47090;DHT22;32840;52.516;13.294;2023-03-23T18:20:25;14.20;99.90
47090;DHT22;32840;52.516;13.294;2023-03-23T18:23:10;14.20;99.90
47090;DHT22;32840;52.516;13.294;2023-03-23T18:25:55;14.20;99.90
47090;DHT22;32840;52.516;13.294;2023-03-23T18:28:41;14.10;99.90
47090;DHT22;32840;52.516;13.294;2023-03-23T18:31:25;14.10;99.90
47090;DHT22;32840;52.516;13.294;2023-03-23T18:34:15;14.10;99.90
47090;DHT22;32840;52.516;13.294;2023-03-23T18:37:00;14.00;99.90
47090;DHT22;32840;52.516;13.294;2023-03-23T18:39:45;14.00;99.90
47090;DHT22;32840;52.516;13.294;2023-03-23T18:42:32;14.00;99.90